Time;durP1;ratioP1;P1;durP2;ratioP2;P2;SDS_P1;SDS_P2;PMS_P1;PMS_P2;Temp;Humidity;BMP_temperature;BMP_pressure;BME280_temperature;BME280_humidity;BME280_pressure;Samples;Min_cycle;Max_cycle;Signal;HPM_P1;HPM_P2
2023/11/12 00:01:32;;;;;;;6.00;2.40;;;;;;;6.14;100.00;101591.53;4975184;28;20547;-75
2023/11/12 00:03:57;;;;;;;6.00;2.33;;;;;;;6.06;100.00;101525.69;4954167;28;20436;-75
2023/11/12 00:06:23;;;;;;;4.87;2.27;;;;;;;6.60;100.00;101614.44;4950661;28;20902;-75
2023/11/12 00:08:49;;;;;;;9.13;2.57;;;;;;;6.42;100.00;101589.59;4973097;28;20184;-75
2023/11/12 00:11:15;;;;;;;9.60;2.50;;;;;;;6.06;100.00;101593.09;4972232;28;20220;-74
2023/11/12 00:13:40;;;;;;;10.37;3.10;;;;;;;6.27;100.00;101587.47;4969332;28;20433;-74
2023/11/12 00:16:06;;;;;;;5.20;2.00;;;;;;;6.55;100.00;101577.56;4973638;28;20191;-75
2023/11/12 00:18:31;;;;;;;5.50;2.20;;;;;;;6.02;100.00;101492.38;4971923;28;20481;-77
2023/11/12 00:20:57;;;;;;;6.50;2.17;;;;;;;6.41;100.00;101532.81;4974119;28;20244;-76
2023/11/12 00:23:24;;;;;;;5.80;1.90;;;;;;;6.04;100.00;101527.66;4969134;28;20249;-77
2023/11/12 00:25:50;;;;;;;6.33;2.17;;;;;;;6.53;100.00;101560.03;4953114;28;20979;-76
2023/11/12 00:28:16;;;;;;;6.33;2.10;;;;;;;6.25;100.00;101612.59;4957973;28;20440;-75
2023/11/12 00:30:41;;;;;;;6.70;2.00;;;;;;;6.21;100.00;101604.06;4971870;28;20453;-76
2023/11/12 00:33:08;;;;;;;5.80;1.97;;;;;;;6.17;100.00;101624.00;4972369;28;20261;-74
2023/11/12 00:35:34;;;;;;;7.37;1.97;;;;;;;5.96;100.00;101596.81;4973437;28;20276;-74
2023/11/12 00:37:59;;;;;;;9.77;2.40;;;;;;;5.62;100.00;101568.97;4954233;28;20524;-74
2023/11/12 00:40:25;;;;;;;16.97;2.40;;;;;;;6.49;100.00;101609.31;4960495;28;20220;-75
2023/11/12 00:42:51;;;;;;;7.23;2.07;;;;;;;6.13;100.00;101581.84;4973019;28;20210;-76
2023/11/12 00:45:17;;;;;;;8.50;2.47;;;;;;;5.75;100.00;101589.88;4974564;28;20479;-76
2023/11/12 00:47:42;;;;;;;7.07;2.17;;;;;;;5.62;100.00;101581.44;4969425;28;20202;-76
2023/11/12 00:50:08;;;;;;;14.40;3.07;;;;;;;5.30;100.00;101521.50;4974907;28;20445;-75
2023/11/12 00:52:34;;;;;;;5.53;2.20;;;;;;;5.75;100.00;101547.28;4956847;28;20229;-75
2023/11/12 00:55:00;;;;;;;4.60;2.30;;;;;;;5.66;100.00;101577.47;4970947;28;20306;-76
2023/11/12 00:57:26;;;;;;;6.00;2.67;;;;;;;5.70;100.00;101567.34;4974579;28;20488;-76
2023/11/12 00:59:51;;;;;;;4.90;2.60;;;;;;;5.41;100.00;101526.66;4971826;28;20817;-76
2023/11/12 01:02:17;;;;;;;8.00;2.73;;;;;;;5.58;100.00;101601.31;4968384;28;20771;-75
2023/11/12 01:04:43;;;;;;;8.37;2.23;;;;;;;6.00;100.00;101595.53;4956816;28;20178;-75
2023/11/12 01:07:08;;;;;;;7.53;3.00;;;;;;;5.51;100.00;101586.94;4964333;28;20194;-75
2023/11/12 01:09:34;;;;;;;11.13;2.77;;;;;;;5.56;100.00;101577.53;4969128;28;20617;-76
2023/11/12 01:12:01;;;;;;;10.73;2.57;;;;;;;5.33;100.00;101552.31;4972221;28;20217;-75
2023/11/12 01:14:27;;;;;;;4.17;1.90;;;;;;;5.62;100.00;101576.09;4969513;28;20498;-75
2023/11/12 01:16:52;;;;;;;8.90;2.80;;;;;;;5.92;100.00;101598.06;4970876;28;20844;-75
2023/11/12 01:19:19;;;;;;;6.97;2.60;;;;;;;6.17;100.00;101604.53;4963693;28;20219;-75
2023/11/12 01:21:44;;;;;;;5.70;2.23;;;;;;;6.09;100.00;101598.13;4978568;28;20256;-76
2023/11/12 01:24:10;;;;;;;7.10;2.33;;;;;;;6.13;100.00;101609.31;4976853;28;20460;-75
2023/11/12 01:26:36;;;;;;;5.27;2.60;;;;;;;6.09;100.00;101654.06;4953401;28;20187;-75
2023/11/12 01:29:01;;;;;;;6.80;2.30;;;;;;;6.06;100.00;101635.72;4973890;28;20194;-75
2023/11/12 01:31:27;;;;;;;8.60;2.73;;;;;;;6.04;100.00;101658.97;4976453;28;20561;-75
2023/11/12 01:33:52;;;;;;;8.83;2.70;;;;;;;6.21;100.00;101646.69;4951834;28;20201;-75
2023/11/12 01:36:18;;;;;;;7.20;2.80;;;;;;;5.69;100.00;101590.47;4952356;28;20200;-75
2023/11/12 01:38:43;;;;;;;7.93;2.70;;;;;;;6.01;100.00;101579.38;4974689;28;20204;-75
2023/11/12 01:41:09;;;;;;;6.47;2.60;;;;;;;5.57;100.00;101533.13;4979262;28;20308;-75
2023/11/12 01:43:34;;;;;;;6.40;2.73;;;;;;;6.18;100.00;101616.84;4968760;28;20198;-75
2023/11/12 01:46:04;;;;;;;4.20;2.40;;;;;;;6.27;100.00;101622.09;4954164;28;20186;-75
2023/11/12 01:48:30;;;;;;;6.80;3.10;;;;;;;6.23;100.00;101638.56;4969452;28;20194;-75
2023/11/12 01:50:57;;;;;;;6.03;3.37;;;;;;;6.06;100.00;101627.72;4959119;28;20504;-75
2023/11/12 01:53:23;;;;;;;6.73;2.77;;;;;;;6.17;100.00;101616.03;4950147;28;20511;-75
2023/11/12 01:55:48;;;;;;;6.70;2.73;;;;;;;6.55;100.00;101630.88;4963100;28;20457;-78
2023/11/12 01:58:17;;;;;;;6.43;2.50;;;;;;;6.51;100.00;101650.00;4965007;28;20190;-77
2023/11/12 02:00:44;;;;;;;5.33;2.33;;;;;;;6.39;100.00;101619.22;4951616;28;20298;-79
2023/11/12 02:03:15;;;;;;;5.03;2.67;;;;;;;6.83;100.00;101673.44;4974142;28;20963;-77
2023/11/12 02:05:41;;;;;;;3.83;1.97;;;;;;;6.76;100.00;101686.53;4978668;28;20472;-78
2023/11/12 02:08:08;;;;;;;9.20;2.70;;;;;;;6.92;100.00;101674.34;4979765;28;20440;-77
2023/11/12 02:10:35;;;;;;;6.57;2.90;;;;;;;6.80;100.00;101652.41;4960137;28;20445;-78
2023/11/12 02:13:04;;;;;;;5.70;2.70;;;;;;;6.41;100.00;101641.22;4955699;28;20596;-77
2023/11/12 02:15:30;;;;;;;6.57;3.00;;;;;;;6.03;100.00;101686.63;4974219;28;20925;-75
2023/11/12 02:18:02;;;;;;;9.60;3.23;;;;;;;6.00;100.00;101643.47;4975246;28;20455;-75
2023/11/12 02:20:27;;;;;;;6.80;3.23;;;;;;;5.83;100.00;101650.38;4963649;28;21025;-75
2023/11/12 02:22:53;;;;;;;11.60;4.10;;;;;;;5.83;100.00;101621.94;4976924;28;20457;-76
2023/11/12 02:25:19;;;;;;;10.73;4.43;;;;;;;5.84;100.00;101630.75;4973895;28;20193;-75
2023/11/12 02:27:44;;;;;;;7.97;4.90;;;;;;;5.95;100.00;101641.25;4961660;28;21154;-75
2023/11/12 02:30:11;;;;;;;9.57;6.13;;;;;;;5.72;100.00;101645.25;4959125;28;20217;-75
2023/11/12 02:32:37;;;;;;;9.90;6.67;;;;;;;5.30;100.00;101614.63;4971492;28;20222;-75
2023/11/12 02:35:03;;;;;;;11.57;7.83;;;;;;;5.41;100.00;101658.84;4956630;28;20531;-75
2023/11/12 02:37:29;;;;;;;11.20;7.10;;;;;;;4.97;100.00;101547.66;4980316;28;20531;-75
2023/11/12 02:39:55;;;;;;;13.90;7.53;;;;;;;5.75;100.00;101660.94;4958978;28;20437;-76
2023/11/12 02:42:21;;;;;;;9.43;6.60;;;;;;;5.95;100.00;101725.63;4972222;28;20466;-78
2023/11/12 02:44:47;;;;;;;8.57;6.43;;;;;;;6.08;100.00;101676.34;4960168;28;20194;-75
2023/11/12 02:47:13;;;;;;;10.13;7.07;;;;;;;6.15;100.00;101695.25;4961331;28;20958;-77
2023/11/12 02:50:20;;;;;;;9.27;6.40;;;;;;;6.19;100.00;101763.22;4959875;28;20186;-76
2023/11/12 02:52:47;;;;;;;9.93;6.93;;;;;;;5.66;100.00;101772.63;4963925;28;20220;-74
2023/11/12 02:55:13;;;;;;;14.27;10.10;;;;;;;4.83;100.00;101654.47;4977937;28;20452;-74
2023/11/12 02:57:39;;;;;;;14.00;9.60;;;;;;;5.54;100.00;101741.00;4974902;28;20483;-74
2023/11/12 03:00:05;;;;;;;11.97;8.53;;;;;;;5.11;100.00;101626.13;4977217;28;20453;-74
2023/11/12 03:02:32;;;;;;;12.60;10.10;;;;;;;4.91;100.00;101683.81;4975791;28;20209;-73
2023/11/12 03:04:57;;;;;;;14.90;11.43;;;;;;;5.08;100.00;101732.78;4969643;28;20445;-74
2023/11/12 03:07:23;;;;;;;11.13;9.70;;;;;;;5.69;100.00;101768.00;4953823;28;20898;-73
2023/11/12 03:09:48;;;;;;;12.30;9.27;;;;;;;5.75;100.00;101780.72;4954911;28;22141;-74
2023/11/12 03:12:15;;;;;;;14.70;10.93;;;;;;;5.39;100.00;101777.88;4952458;28;20274;-75
2023/11/12 03:14:41;;;;;;;14.50;9.03;;;;;;;5.98;100.00;101784.75;4954068;28;20613;-76
2023/11/12 03:17:07;;;;;;;12.50;8.90;;;;;;;5.25;100.00;101693.16;4976678;28;20448;-75
2023/11/12 03:19:34;;;;;;;17.20;10.90;;;;;;;5.08;100.00;101787.81;4952038;28;20448;-74
2023/11/12 03:22:00;;;;;;;18.17;11.43;;;;;;;4.77;100.00;101761.31;4968048;28;20582;-74
2023/11/12 03:24:26;;;;;;;24.73;12.03;;;;;;;5.85;100.00;101817.00;4957015;28;20451;-74
2023/11/12 03:26:52;;;;;;;11.67;9.47;;;;;;;5.10;100.00;101812.44;4959779;28;20492;-74
2023/11/12 03:29:19;;;;;;;13.27;9.87;;;;;;;4.89;100.00;101762.03;4977607;28;20190;-74
2023/11/12 03:31:45;;;;;;;12.23;9.40;;;;;;;4.74;100.00;101794.38;4958396;28;20476;-75
2023/11/12 03:34:14;;;;;;;15.60;9.20;;;;;;;4.56;100.00;101805.78;4981485;28;20445;-74
2023/11/12 03:36:39;;;;;;;14.50;9.67;;;;;;;5.37;100.00;101856.97;4976718;28;20190;-75
2023/11/12 03:39:05;;;;;;;12.13;9.70;;;;;;;4.97;100.00;101856.06;4977323;28;20516;-75
2023/11/12 03:41:32;;;;;;;16.93;10.60;;;;;;;4.79;100.00;101867.53;4960954;28;20202;-74
2023/11/12 03:43:57;;;;;;;15.70;11.20;;;;;;;4.39;100.00;101839.97;4957966;28;20441;-74
2023/11/12 03:46:24;;;;;;;20.20;11.73;;;;;;;4.68;100.00;101914.47;4957116;28;20814;-74
2023/11/12 03:48:49;;;;;;;16.53;12.47;;;;;;;4.30;100.00;101830.16;4977338;28;20190;-74
2023/11/12 03:51:15;;;;;;;16.30;11.20;;;;;;;4.69;100.00;101907.38;4959552;28;20942;-74
2023/11/12 03:53:40;;;;;;;30.63;13.27;;;;;;;5.37;100.00;101971.38;4956593;28;20690;-74
2023/11/12 03:56:06;;;;;;;18.90;11.63;;;;;;;4.92;100.00;101927.47;4977016;28;20197;-75
2023/11/12 03:58:32;;;;;;;14.20;10.80;;;;;;;4.67;100.00;101866.78;4977591;28;20186;-75
2023/11/12 04:00:58;;;;;;;24.07;14.60;;;;;;;4.84;100.00;101990.25;4979784;28;20715;-74
2023/11/12 04:03:25;;;;;;;20.07;13.50;;;;;;;4.88;100.00;101973.88;4971243;28;20452;-74
2023/11/12 04:05:51;;;;;;;23.00;13.27;;;;;;;5.11;100.00;102010.91;4959876;28;20558;-74
2023/11/12 04:08:18;;;;;;;57.50;14.50;;;;;;;5.00;100.00;102014.50;4972419;28;20453;-74
2023/11/12 04:10:44;;;;;;;26.87;13.03;;;;;;;4.68;100.00;101946.38;4974465;28;21001;-74
2023/11/12 04:13:10;;;;;;;13.50;12.10;;;;;;;5.26;100.00;102035.34;4976223;28;20433;-74
2023/11/12 04:15:36;;;;;;;287.57;22.57;;;;;;;4.56;100.00;102040.44;4955425;28;20451;-74
2023/11/12 04:18:02;;;;;;;113.47;16.90;;;;;;;4.65;100.00;102031.69;4977542;28;20463;-74
2023/11/12 04:20:30;;;;;;;169.33;19.30;;;;;;;4.18;100.00;101991.41;4972996;28;20441;-74
2023/11/12 04:22:56;;;;;;;38.03;14.37;;;;;;;4.61;100.00;102058.66;4972011;28;20218;-74
2023/11/12 04:25:22;;;;;;;36.40;14.60;;;;;;;4.95;100.00;102109.81;4973739;28;20448;-74
2023/11/12 04:27:48;;;;;;;98.90;16.37;;;;;;;4.67;100.00;102066.13;4976039;28;20444;-74
2023/11/12 04:30:13;;;;;;;18.90;13.83;;;;;;;4.56;100.00;102043.09;4959211;28;20441;-74
2023/11/12 04:32:39;;;;;;;29.17;12.87;;;;;;;4.77;100.00;102122.81;4957877;28;20206;-74
2023/11/12 04:35:08;;;;;;;38.77;13.40;;;;;;;5.51;100.00;102194.53;4953141;28;20855;-74
2023/11/12 04:37:34;;;;;;;24.13;13.00;;;;;;;5.07;100.00;102217.78;4974334;28;20178;-74
2023/11/12 04:40:00;;;;;;;34.13;14.23;;;;;;;4.65;100.00;102177.00;4962079;28;20820;-74
2023/11/12 04:42:26;;;;;;;62.30;16.10;;;;;;;4.79;100.00;102267.09;4979696;28;20452;-74
2023/11/12 04:44:52;;;;;;;36.73;16.00;;;;;;;4.70;100.00;102279.31;4975687;28;21144;-74
2023/11/12 04:47:18;;;;;;;17.47;14.50;;;;;;;4.90;100.00;102258.25;4952553;28;20468;-74
2023/11/12 04:49:43;;;;;;;46.07;16.50;;;;;;;3.87;100.00;102168.28;4950730;28;20198;-75
2023/11/12 04:52:08;;;;;;;20.50;14.30;;;;;;;4.87;100.00;102324.97;4966331;28;20213;-74
2023/11/12 04:54:34;;;;;;;18.17;13.43;;;;;;;5.32;100.00;102349.59;4972656;28;20186;-74
2023/11/12 04:56:59;;;;;;;20.17;14.27;;;;;;;4.77;100.00;102346.13;4969464;28;20256;-74
2023/11/12 04:59:25;;;;;;;30.93;16.70;;;;;;;4.47;100.00;102328.19;4974950;28;20193;-74
2023/11/12 05:01:51;;;;;;;18.90;13.33;;;;;;;3.82;100.00;102205.81;4973296;28;20216;-74
2023/11/12 05:04:16;;;;;;;36.63;15.30;;;;;;;4.51;100.00;102295.94;4978678;28;20193;-74
2023/11/12 05:06:42;;;;;;;17.30;12.77;;;;;;;5.06;100.00;102386.31;4976348;28;20819;-74
2023/11/12 05:09:08;;;;;;;15.70;12.80;;;;;;;5.33;100.00;102404.50;4972194;28;20213;-74
2023/11/12 05:11:37;;;;;;;14.27;12.03;;;;;;;4.25;100.00;102254.66;4957004;28;20484;-74
2023/11/12 05:14:03;;;;;;;31.50;14.60;;;;;;;3.58;100.00;102248.38;4975902;28;21054;-74
2023/11/12 05:16:28;;;;;;;13.67;10.33;;;;;;;5.23;100.00;102406.22;4975588;28;20462;-74
2023/11/12 05:18:54;;;;;;;62.67;14.10;;;;;;;4.50;100.00;102421.78;4975870;28;20272;-74
2023/11/12 05:21:19;;;;;;;14.60;11.40;;;;;;;4.41;100.00;102320.69;4953463;28;20919;-74
2023/11/12 05:23:45;;;;;;;64.00;15.00;;;;;;;4.25;100.00;102298.03;4971541;28;20200;-73
2023/11/12 05:26:10;;;;;;;55.13;16.57;;;;;;;4.34;100.00;102340.72;4973658;28;20187;-74
2023/11/12 05:28:36;;;;;;;61.33;18.30;;;;;;;4.28;100.00;102337.63;4974427;28;20194;-74
2023/11/12 05:31:01;;;;;;;65.93;19.83;;;;;;;4.40;100.00;102343.78;4970513;28;20206;-74
2023/11/12 05:33:27;;;;;;;69.33;19.90;;;;;;;4.30;100.00;102343.63;4970090;28;20244;-74
2023/11/12 05:35:53;;;;;;;34.07;16.70;;;;;;;4.69;100.00;102360.03;4979626;28;20192;-73
2023/11/12 05:38:18;;;;;;;46.40;18.70;;;;;;;3.89;100.00;102239.84;4957216;28;20193;-74
2023/11/12 05:40:44;;;;;;;19.40;15.70;;;;;;;4.54;100.00;102257.63;4956667;28;20438;-74
2023/11/12 05:43:10;;;;;;;20.77;16.80;;;;;;;4.56;100.00;102292.88;4975935;28;20289;-73
2023/11/12 05:45:36;;;;;;;18.90;15.10;;;;;;;4.82;100.00;102335.97;4969687;28;20244;-74
2023/11/12 05:48:01;;;;;;;21.47;16.87;;;;;;;4.69;100.00;102271.50;4965753;28;20448;-74
2023/11/12 05:50:26;;;;;;;22.43;18.07;;;;;;;4.74;100.00;102347.25;4956947;28;20242;-74
2023/11/12 05:52:52;;;;;;;20.80;18.13;;;;;;;5.04;100.00;102350.19;4969769;28;20783;-74
2023/11/12 05:55:18;;;;;;;18.80;16.80;;;;;;;5.33;100.00;102366.41;4979172;28;20189;-74
2023/11/12 05:57:44;;;;;;;18.20;15.90;;;;;;;5.38;100.00;102319.81;4973053;28;20439;-75
2023/11/12 06:00:13;;;;;;;23.43;17.07;;;;;;;5.63;100.00;102365.66;4969133;28;20433;-76
2023/11/12 06:02:39;;;;;;;20.17;14.27;;;;;;;4.90;100.00;102272.38;4973684;28;20197;-75
2023/11/12 06:05:07;;;;;;;21.73;15.60;;;;;;;5.64;100.00;102362.00;4973605;28;20432;-75
2023/11/12 06:07:33;;;;;;;18.83;16.60;;;;;;;5.19;100.00;102351.56;4979943;28;20588;-74
2023/11/12 06:10:02;;;;;;;18.10;14.77;;;;;;;5.55;100.00;102326.38;4976470;28;20448;-74
2023/11/12 06:12:27;;;;;;;18.57;14.07;;;;;;;5.74;100.00;102322.16;4958523;28;20210;-76
2023/11/12 06:14:53;;;;;;;18.00;14.13;;;;;;;4.96;100.00;102253.25;4972235;28;20510;-75
2023/11/12 06:17:18;;;;;;;19.17;15.73;;;;;;;4.70;100.00;102265.19;4982868;28;20824;-74
2023/11/12 06:19:44;;;;;;;22.47;17.80;;;;;;;4.81;100.00;102240.41;4960396;28;20244;-75
2023/11/12 06:22:09;;;;;;;17.60;14.90;;;;;;;4.41;100.00;102179.91;4977171;28;20265;-74
2023/11/12 06:24:35;;;;;;;20.20;16.80;;;;;;;5.01;100.00;102271.50;4957069;28;20636;-74
2023/11/12 06:27:00;;;;;;;18.93;16.83;;;;;;;4.68;100.00;102217.47;4960420;28;21673;-74
2023/11/12 06:29:26;;;;;;;18.03;14.50;;;;;;;5.16;100.00;102243.63;4979406;28;20190;-74
2023/11/12 06:31:51;;;;;;;16.60;12.80;;;;;;;5.71;100.00;102262.03;4965902;28;20213;-76
2023/11/12 06:34:17;;;;;;;16.20;14.47;;;;;;;4.98;100.00;102232.72;4957224;28;20205;-74
2023/11/12 06:36:43;;;;;;;17.77;14.50;;;;;;;4.91;100.00;102265.25;4961095;28;20725;-74
2023/11/12 06:39:13;;;;;;;21.40;17.20;;;;;;;4.42;100.00;102206.31;4960057;28;20471;-74
2023/11/12 06:41:40;;;;;;;18.00;16.00;;;;;;;4.79;100.00;102258.28;4960804;28;20566;-75
2023/11/12 06:44:05;;;;;;;23.50;16.53;;;;;;;4.70;100.00;102249.25;4981370;28;20433;-75
2023/11/12 06:46:30;;;;;;;28.00;18.93;;;;;;;4.54;100.00;102257.63;4956680;28;20438;-74
2023/11/12 06:48:56;;;;;;;25.60;18.53;;;;;;;4.24;100.00;102205.16;4976330;28;20649;-74
2023/11/12 06:51:23;;;;;;;22.13;16.67;;;;;;;4.14;100.00;102153.75;4962076;28;20214;-74
2023/11/12 06:53:48;;;;;;;23.67;19.10;;;;;;;4.56;100.00;102233.59;4970685;28;20252;-74
2023/11/12 06:56:14;;;;;;;26.17;20.80;;;;;;;4.66;100.00;102272.59;4963273;28;20729;-74
2023/11/12 06:58:42;;;;;;;26.20;18.40;;;;;;;4.87;100.00;102301.03;4979311;28;20189;-75
2023/11/12 07:01:08;;;;;;;26.77;20.10;;;;;;;4.38;100.00;102254.53;4958942;28;20220;-75
2023/11/12 07:03:33;;;;;;;29.30;23.10;;;;;;;4.60;100.00;102326.25;4973315;28;20443;-75
2023/11/12 07:05:59;;;;;;;20.90;18.17;;;;;;;5.18;100.00;102348.09;4962627;28;20193;-75
2023/11/12 07:08:25;;;;;;;25.27;19.07;;;;;;;4.79;100.00;102330.06;4963397;28;20208;-75
2023/11/12 07:10:51;;;;;;;19.93;17.50;;;;;;;5.14;100.00;102356.44;4976075;28;20189;-75
2023/11/12 07:13:17;;;;;;;25.50;20.00;;;;;;;4.61;100.00;102340.38;4972001;28;20445;-75
2023/11/12 07:15:43;;;;;;;20.40;18.30;;;;;;;5.14;100.00;102381.22;4962049;28;20980;-75
2023/11/12 07:18:10;;;;;;;23.67;19.80;;;;;;;4.82;100.00;102364.38;4974349;28;20193;-74
2023/11/12 07:20:36;;;;;;;30.07;21.87;;;;;;;4.65;100.00;102363.91;4975185;28;20444;-74
2023/11/12 07:23:02;;;;;;;28.67;23.13;;;;;;;4.91;100.00;102375.09;4962116;28;20444;-75
2023/11/12 07:25:27;;;;;;;21.07;18.60;;;;;;;5.24;100.00;102360.03;4974577;28;20433;-75
2023/11/12 07:27:53;;;;;;;21.00;17.33;;;;;;;4.49;100.00;102292.56;4984666;28;20186;-75
2023/11/12 07:30:18;;;;;;;34.43;23.17;;;;;;;4.55;100.00;102349.69;4969683;28;20268;-74
2023/11/12 07:32:44;;;;;;;28.03;22.63;;;;;;;4.60;100.00;102366.09;4967201;28;20197;-74
2023/11/12 07:35:13;;;;;;;25.83;20.37;;;;;;;5.10;100.00;102373.63;4964351;28;20652;-74
2023/11/12 07:37:41;;;;;;;25.77;22.13;;;;;;;4.81;100.00;102378.63;4982659;28;21039;-74
2023/11/12 07:40:11;;;;;;;26.87;21.07;;;;;;;4.98;100.00;102383.44;4983716;28;20515;-75
2023/11/12 07:42:40;;;;;;;28.53;22.03;;;;;;;4.35;100.00;102295.47;4959842;28;20508;-75
2023/11/12 07:45:10;;;;;;;26.03;20.93;;;;;;;4.99;100.00;102375.31;4965528;28;20483;-74
2023/11/12 07:47:38;;;;;;;26.70;21.63;;;;;;;4.81;100.00;102360.03;4961986;28;20501;-74
2023/11/12 07:50:05;;;;;;;27.63;21.03;;;;;;;4.32;100.00;102281.59;4983920;28;20441;-74
2023/11/12 07:52:32;;;;;;;24.03;20.27;;;;;;;4.84;100.00;102352.66;4965258;28;20469;-74
2023/11/12 07:54:57;;;;;;;26.80;21.30;;;;;;;4.82;100.00;102364.38;4979273;28;20467;-74
2023/11/12 07:57:24;;;;;;;24.97;20.13;;;;;;;5.12;100.00;102401.78;4967514;28;20469;-74
2023/11/12 07:59:49;;;;;;;24.67;19.83;;;;;;;4.54;100.00;102316.06;4966412;28;20615;-74
2023/11/12 08:02:14;;;;;;;26.93;17.90;;;;;;;5.10;100.00;102386.91;4969414;28;20528;-75
2023/11/12 08:04:40;;;;;;;21.00;17.07;;;;;;;5.42;100.00;102401.06;4971248;28;20181;-75
2023/11/12 08:07:06;;;;;;;20.43;16.57;;;;;;;4.65;100.00;102272.69;4978593;28;20189;-75
2023/11/12 08:09:32;;;;;;;21.30;17.20;;;;;;;5.20;100.00;102356.75;4958063;28;20209;-75
2023/11/12 08:11:57;;;;;;;23.30;17.23;;;;;;;4.91;100.00;102340.53;4956865;28;21012;-74
2023/11/12 08:14:24;;;;;;;26.90;18.47;;;;;;;4.57;100.00;102312.34;4977756;28;20559;-74
2023/11/12 08:16:50;;;;;;;18.17;15.83;;;;;;;4.68;100.00;102297.22;4974492;28;20185;-75
2023/11/12 08:19:15;;;;;;;18.30;14.73;;;;;;;5.10;100.00;102350.53;4974185;28;20437;-75
2023/11/12 08:21:41;;;;;;;21.87;15.97;;;;;;;5.10;100.00;102363.81;4970093;28;20207;-74
2023/11/12 08:24:07;;;;;;;16.23;13.93;;;;;;;5.36;100.00;102379.47;4975288;28;20666;-75
2023/11/12 08:26:38;;;;;;;20.07;15.40;;;;;;;5.28;100.00;102372.09;4976556;28;20196;-75
2023/11/12 08:29:06;;;;;;;17.10;14.17;;;;;;;5.33;100.00;102385.03;4962825;28;20452;-75
2023/11/12 08:31:33;;;;;;;16.80;14.60;;;;;;;5.36;100.00;102393.59;4973942;28;20477;-75
2023/11/12 08:33:59;;;;;;;16.80;13.70;;;;;;;5.28;100.00;102390.72;4968104;28;20440;-74
2023/11/12 08:36:24;;;;;;;18.00;14.20;;;;;;;5.08;100.00;102363.09;4977368;28;20442;-74
2023/11/12 08:38:50;;;;;;;20.90;16.13;;;;;;;5.10;100.00;102390.41;4964305;28;20183;-75
2023/11/12 08:41:16;;;;;;;18.80;15.13;;;;;;;5.47;100.00;102411.34;4975403;28;20213;-75
2023/11/12 08:43:44;;;;;;;17.30;14.60;;;;;;;5.48;100.00;102374.94;4970041;28;20189;-75
2023/11/12 08:46:11;;;;;;;16.37;13.83;;;;;;;5.20;100.00;102339.97;4979938;28;20440;-75
2023/11/12 08:48:42;;;;;;;16.00;14.10;;;;;;;5.28;100.00;102315.38;4982720;28;21069;-75
2023/11/12 08:51:09;;;;;;;16.00;13.33;;;;;;;5.62;100.00;102335.53;4956333;28;20831;-75
2023/11/12 08:53:36;;;;;;;16.53;13.40;;;;;;;6.02;100.00;102395.25;4978536;28;20540;-75
2023/11/12 08:56:02;;;;;;;16.93;12.43;;;;;;;5.57;100.00;102340.41;4972963;28;20453;-74
2023/11/12 08:58:28;;;;;;;16.57;13.77;;;;;;;5.20;100.00;102302.72;4952700;28;20515;-72
2023/11/12 09:00:54;;;;;;;17.40;12.97;;;;;;;5.49;100.00;102326.03;4972613;28;21096;-75
2023/11/12 09:03:20;;;;;;;16.13;13.83;;;;;;;5.16;100.00;102272.88;4967787;28;20444;-72
2023/11/12 09:05:45;;;;;;;17.07;12.93;;;;;;;5.86;100.00;102372.53;4962611;28;20466;-73
2023/11/12 09:08:10;;;;;;;16.43;12.37;;;;;;;4.75;100.00;102260.34;4970026;28;20275;-71
2023/11/12 09:10:37;;;;;;;17.73;14.83;;;;;;;5.05;100.00;102335.91;4967547;28;20209;-72
2023/11/12 09:13:03;;;;;;;20.50;16.13;;;;;;;5.28;100.00;102368.59;4970143;28;20210;-72
2023/11/12 09:15:28;;;;;;;19.40;14.80;;;;;;;5.15;100.00;102337.69;4957529;28;20463;-71
2023/11/12 09:17:55;;;;;;;19.00;15.43;;;;;;;5.45;100.00;102368.03;4955393;28;20434;-70
2023/11/12 09:20:22;;;;;;;18.80;15.17;;;;;;;4.69;100.00;102237.78;4975248;28;20193;-72
2023/11/12 09:22:48;;;;;;;18.50;14.60;;;;;;;5.95;100.00;102394.91;4960000;28;20998;-70
2023/11/12 09:25:14;;;;;;;16.27;14.57;;;;;;;6.11;100.00;102402.47;4977903;28;20453;-70
2023/11/12 09:27:39;;;;;;;17.60;13.43;;;;;;;5.99;100.00;102376.84;4974807;28;20266;-71
2023/11/12 09:30:05;;;;;;;17.50;15.07;;;;;;;6.11;100.00;102397.13;4971405;28;20229;-70
2023/11/12 09:32:31;;;;;;;17.13;13.77;;;;;;;5.72;100.00;102369.34;4966196;28;20306;-70
2023/11/12 09:34:57;;;;;;;16.20;13.77;;;;;;;6.11;100.00;102397.97;4952670;28;20432;-70
2023/11/12 09:37:22;;;;;;;13.23;11.83;;;;;;;5.93;100.00;102390.66;4979914;28;20244;-70
2023/11/12 09:39:47;;;;;;;14.80;12.80;;;;;;;6.26;100.00;102394.97;4955105;28;20193;-70
2023/11/12 09:42:21;;;;;;;14.20;12.17;;;;;;;6.04;100.00;102380.81;4973721;28;20230;-71
2023/11/12 09:44:47;;;;;;;15.10;11.43;;;;;;;5.97;100.00;102307.75;4979194;28;20210;-72
2023/11/12 09:47:37;;;;;;;16.00;12.27;;;;;;;6.81;100.00;102375.97;4974127;28;20451;-71
2023/11/12 09:50:04;;;;;;;14.13;11.90;;;;;;;4.60;100.00;102107.44;4971533;28;20460;-72
2023/11/12 09:52:31;;;;;;;12.40;9.70;;;;;;;5.92;100.00;102288.63;4977631;28;20472;-71
2023/11/12 09:54:58;;;;;;;11.63;9.83;;;;;;;6.83;100.00;102377.50;4972713;28;20539;-73
2023/11/12 09:57:24;;;;;;;12.70;10.50;;;;;;;6.94;100.00;102356.06;4970906;28;21161;-72
2023/11/12 09:59:51;;;;;;;12.90;11.40;;;;;;;6.79;100.00;102346.75;4939623;28;21237;-71
2023/11/12 10:02:18;;;;;;;13.47;10.27;;;;;;;7.13;100.00;102333.03;4964519;28;20210;-72
2023/11/12 10:04:44;;;;;;;10.90;9.47;;;;;;;5.86;100.00;102134.69;4977290;28;20448;-73
2023/11/12 10:07:15;;;;;;;11.60;9.30;;;;;;;7.12;100.00;102300.19;4976986;28;20440;-70
2023/11/12 10:09:41;;;;;;;12.50;10.00;;;;;;;6.91;100.00;102260.28;4960137;28;20178;-71
2023/11/12 10:12:06;;;;;;;11.87;9.63;;;;;;;7.11;100.00;102255.78;4972231;28;20498;-75
2023/11/12 10:14:33;;;;;;;10.67;8.70;;;;;;;7.46;100.00;102238.31;4956610;28;20433;-70
2023/11/12 10:17:10;;;;;;;10.43;8.53;;;;;;;7.63;100.00;102202.84;4972085;28;20221;-75
2023/11/12 10:19:37;;;;;;;9.87;7.57;;;;;;;7.76;100.00;102151.78;4968066;28;20436;-73
2023/11/12 10:22:03;;;;;;;9.43;7.57;;;;;;;7.82;100.00;102116.47;4973841;28;20468;-72
2023/11/12 10:24:31;;;;;;;9.50;6.73;;;;;;;7.97;100.00;102076.72;4970937;28;20910;-74
2023/11/12 10:27:05;;;;;;;9.93;6.80;;;;;;;7.66;100.00;102004.94;4972832;28;20922;-72
2023/11/12 10:29:31;;;;;;;9.23;7.10;;;;;;;7.36;100.00;101944.72;4974075;28;20444;-72
2023/11/12 10:31:57;;;;;;;8.63;6.57;;;;;;;7.80;100.00;101995.56;4976393;28;20476;-72
2023/11/12 10:34:27;;;;;;;8.20;6.33;;;;;;;7.89;100.00;101977.78;4970205;28;21024;-72
2023/11/12 10:37:02;;;;;;;9.90;6.00;;;;;;;7.88;100.00;101960.91;4971233;28;20437;-72
2023/11/12 10:39:40;;;;;;;8.50;6.63;;;;;;;8.20;100.00;101948.00;4971903;28;20436;-72
2023/11/12 10:42:23;;;;;;;8.93;6.20;;;;;;;8.12;100.00;101935.38;4970197;28;20465;-72
2023/11/12 10:44:52;;;;;;;10.07;6.47;;;;;;;7.90;100.00;101923.38;4972924;28;20834;-73
2023/11/12 10:47:18;;;;;;;10.40;5.93;;;;;;;7.61;100.00;101857.72;4969958;28;20437;-70
2023/11/12 10:49:45;;;;;;;7.83;5.70;;;;;;;8.23;100.00;101926.28;4972825;28;20447;-71
2023/11/12 10:52:12;;;;;;;8.37;6.53;;;;;;;8.10;100.00;101881.25;4974966;28;20492;-73
2023/11/12 10:54:39;;;;;;;9.00;5.70;;;;;;;8.07;100.00;101903.81;4978930;28;20535;-73
2023/11/12 10:57:05;;;;;;;8.33;5.73;;;;;;;7.23;100.00;101802.81;4976862;28;20444;-72
2023/11/12 10:59:35;;;;;;;7.77;6.00;;;;;;;7.45;100.00;101884.25;4977297;28;20938;-71
2023/11/12 11:02:01;;;;;;;9.83;6.57;;;;;;;7.59;100.00;101854.34;4970374;28;20592;-71
2023/11/12 11:04:28;;;;;;;9.03;6.87;;;;;;;7.85;100.00;101859.72;4955248;28;20974;-71
2023/11/12 11:06:54;;;;;;;8.07;6.40;;;;;;;7.63;100.00;101817.50;4968819;28;20453;-72
2023/11/12 11:09:22;;;;;;;8.33;6.00;;;;;;;8.22;100.00;101837.25;4972115;28;20923;-73
2023/11/12 11:11:49;;;;;;;8.50;6.00;;;;;;;8.15;100.00;101823.66;4974108;28;20216;-73